Decoded Metar for UHSS (YUZHNO-SAKHALINSK in RUSSIA) (IATA:UUS) | Meteo·Mobile Aviation Weather
aviador You're here:

UHSS Decoded Metar

YUZHNO-SAKHALINSK in RUSSIA
Report Time2018-10-23 22:00:00
UTC Time2018-10-23 22:13:05
Flight Rules mvfr MVFR
Wind140° at 6 kt
W.Decomp.*RWY 19: 4.7 kt HW 3.8 kt LCW
W.Rank140° ranks 14
Current wind is above 140° avg. (5.1)
Visibility9999 m
Phenomena:N/A
Clouds:Broken CB 018 Hf
Expected CloudBase > 400 ft AGL from Temp-Dew spread
Ceiling1,800 ft
Temp11°C (ISA -4)
Dew Point10°C (94% RH)
AAT8.9°C
QNH1016 hPa
Density Alt-289 ft
Elevation102 ft
Report Wrong Elevation
Raw Report
METAR UHSS 232200Z 14003MPS 9999 BKN018CB 11/10 Q1016 R01/CLRD70
NOSIG RMK MT OBSC QFE761/1015=

Extra information for UHSS:More info

Metar Taf Metar & Taf Last 4 Metars F.Rules Stats Wind Profile Meteogram Temp Stats Airport Information Weather charts Add Link Nearby VenuesMetar ALERT Operation Metar Decoded Social comments